Time;durP1;ratioP1;P1;durP2;ratioP2;P2;SDS_P1;SDS_P2;PMS_P1;PMS_P2;Temp;Humidity;BMP_temperature;BMP_pressure;BME280_temperature;BME280_humidity;BME280_pressure;Samples;Min_cycle;Max_cycle;Signal;HPM_P1;HPM_P2
2022/06/23 00:00:30;;;;;;;4.60;2.40;;;;;;;15.28;65.69;100669.78;107955;1279;76298;-85
2022/06/23 00:02:58;;;;;;;3.30;2.40;;;;;;;15.23;66.28;100665.79;107948;1280;72657;-85
2022/06/23 00:05:33;;;;;;;4.70;2.40;;;;;;;15.20;66.60;100662.63;107726;1280;73038;-85
2022/06/23 00:08:00;;;;;;;4.50;2.80;;;;;;;15.18;66.73;100665.09;107766;1281;60604;-85
2022/06/23 00:10:36;;;;;;;5.60;2.50;;;;;;;15.14;66.84;100664.69;108336;1280;61802;-85
2022/06/23 00:13:12;;;;;;;4.60;2.40;;;;;;;15.10;67.13;100666.61;108250;1281;74556;-85
2022/06/23 00:15:41;;;;;;;4.50;2.90;;;;;;;15.07;67.29;100667.56;107725;1279;72695;-85
2022/06/23 00:18:20;;;;;;;5.10;2.70;;;;;;;15.04;67.51;100670.52;107695;1279;73018;-85
2022/06/23 00:20:54;;;;;;;5.80;2.60;;;;;;;15.00;67.83;100671.34;107703;1279;60644;-86
2022/06/23 00:23:35;;;;;;;5.50;2.90;;;;;;;14.97;67.72;100668.96;107926;1279;60677;-85
2022/06/23 00:26:31;;;;;;;5.10;2.90;;;;;;;14.94;67.97;100669.66;107893;1279;76613;-85
2022/06/23 00:29:02;;;;;;;5.40;2.70;;;;;;;14.91;67.97;100667.80;107788;1281;72793;-85
2022/06/23 00:31:38;;;;;;;5.70;3.40;;;;;;;14.87;68.21;100669.94;107724;1279;74042;-85
2022/06/23 00:34:22;;;;;;;6.00;3.70;;;;;;;14.82;68.31;100669.64;107663;1280;60689;-85
2022/06/23 00:36:53;;;;;;;5.90;2.80;;;;;;;14.78;68.65;100676.67;107661;1281;60305;-85
2022/06/23 00:39:26;;;;;;;3.20;2.40;;;;;;;14.72;68.62;100675.79;107561;1281;76462;-85
2022/06/23 00:41:53;;;;;;;3.90;3.20;;;;;;;14.66;68.97;100673.19;107628;1281;71222;-85
2022/06/23 00:44:36;;;;;;;5.10;2.80;;;;;;;14.60;69.08;100670.18;107531;1281;74075;-86
2022/06/23 00:47:07;;;;;;;4.50;2.60;;;;;;;14.54;69.41;100669.07;107752;1281;62273;-85
2022/06/23 00:49:41;;;;;;;6.10;2.90;;;;;;;14.48;69.67;100668.55;107957;1279;60769;-86
2022/06/23 00:52:22;;;;;;;4.10;2.90;;;;;;;14.42;70.09;100669.16;107700;1281;73885;-85
2022/06/23 00:54:53;;;;;;;6.10;3.10;;;;;;;14.37;70.50;100670.73;107692;1280;72812;-86
2022/06/23 00:57:29;;;;;;;5.00;3.10;;;;;;;14.32;70.82;100664.43;107930;1279;72926;-85
2022/06/23 01:00:24;;;;;;;10.00;4.60;;;;;;;14.28;71.13;100666.03;107938;1279;59937;-86
2022/06/23 01:02:58;;;;;;;4.70;3.20;;;;;;;14.22;71.14;100674.05;107810;1279;60468;-85
2022/06/23 01:05:35;;;;;;;4.70;2.80;;;;;;;14.18;71.45;100683.55;107945;1279;74646;-85
2022/06/23 01:08:11;;;;;;;5.90;3.60;;;;;;;14.12;71.85;100687.67;107897;1279;72512;-85
2022/06/23 01:11:08;;;;;;;5.10;3.20;;;;;;;14.06;72.05;100694.10;107899;1279;74284;-85
2022/06/23 01:13:49;;;;;;;7.40;3.00;;;;;;;14.01;72.51;100696.56;107669;1279;63077;-85
2022/06/23 01:16:41;;;;;;;5.40;2.90;;;;;;;13.95;72.45;100700.31;107681;1281;60383;-86
2022/06/23 01:19:45;;;;;;;7.10;2.90;;;;;;;13.89;72.71;100701.31;107772;1280;74893;-85
2022/06/23 01:22:23;;;;;;;4.40;3.40;;;;;;;13.82;73.00;100701.27;107822;1279;72387;-85
2022/06/23 01:25:14;;;;;;;5.10;3.00;;;;;;;13.75;73.15;100708.90;107919;1279;74125;-85
2022/06/23 01:27:53;;;;;;;6.20;3.50;;;;;;;13.69;73.51;100708.15;107910;1279;63177;-85
2022/06/23 01:30:22;;;;;;;5.50;3.10;;;;;;;13.63;73.98;100708.00;107663;1281;59584;-85
2022/06/23 01:33:00;;;;;;;4.90;3.50;;;;;;;13.58;74.31;100701.48;107631;1280;75327;-86
2022/06/23 01:35:36;;;;;;;7.90;3.30;;;;;;;13.53;74.68;100699.73;107884;1279;71359;-86
2022/06/23 01:38:23;;;;;;;6.40;3.50;;;;;;;13.49;75.09;100697.02;107565;1279;73010;-86
2022/06/23 01:40:59;;;;;;;4.70;3.40;;;;;;;13.45;75.63;100697.99;107628;1279;63225;-85
2022/06/23 01:43:36;;;;;;;6.20;3.40;;;;;;;13.41;75.71;100698.78;107925;1279;60530;-86
2022/06/23 01:46:22;;;;;;;4.20;3.20;;;;;;;13.40;76.58;100697.50;107864;1279;76279;-85
2022/06/23 01:49:25;;;;;;;25.40;4.70;;;;;;;13.39;76.83;100701.05;107967;1279;70203;-86
2022/06/23 01:51:55;;;;;;;5.20;3.70;;;;;;;13.36;77.30;100696.04;107708;1279;74416;-85
2022/06/23 01:54:26;;;;;;;5.20;3.90;;;;;;;13.35;77.57;100698.33;107603;1279;62531;-85
2022/06/23 01:57:10;;;;;;;7.80;4.20;;;;;;;13.34;77.81;100696.54;107426;1282;59543;-85
2022/06/23 01:59:58;;;;;;;7.80;3.40;;;;;;;13.30;77.86;100693.31;107887;1279;74617;-85
2022/06/23 02:02:47;;;;;;;5.70;3.40;;;;;;;13.31;78.17;100693.39;107907;1279;71120;-85
2022/06/23 02:05:27;;;;;;;4.10;3.30;;;;;;;13.29;78.63;100688.95;107945;1279;73900;-85
2022/06/23 02:08:09;;;;;;;7.10;3.50;;;;;;;13.29;78.77;100684.43;107605;1280;61252;-86
2022/06/23 02:10:47;;;;;;;7.00;3.90;;;;;;;13.28;79.36;100678.42;107935;1279;63387;-85
2022/06/23 02:13:26;;;;;;;5.00;3.20;;;;;;;13.28;79.54;100677.77;107723;1281;75256;-85
2022/06/23 02:16:04;;;;;;;5.90;3.40;;;;;;;13.27;79.73;100675.84;107725;1279;71482;-85
2022/06/23 02:18:37;;;;;;;5.60;3.70;;;;;;;13.27;79.92;100673.59;107638;1279;72916;-85
2022/06/23 02:21:32;;;;;;;9.20;4.00;;;;;;;13.25;80.04;100676.58;107934;1279;61919;-86
2022/06/23 02:24:08;;;;;;;5.60;3.80;;;;;;;13.25;80.06;100676.73;107626;1280;60693;-85
2022/06/23 02:26:41;;;;;;;7.10;4.50;;;;;;;13.23;80.25;100676.02;107848;1280;74941;-85
2022/06/23 02:29:27;;;;;;;7.30;4.20;;;;;;;13.22;80.43;100675.40;107604;1281;70719;-85
2022/06/23 02:32:15;;;;;;;7.20;3.80;;;;;;;13.21;80.77;100677.15;107966;1279;73089;-85
2022/06/23 02:35:08;;;;;;;5.00;3.20;;;;;;;13.20;81.06;100681.53;107562;1281;63244;-86
2022/06/23 02:37:56;;;;;;;6.70;3.60;;;;;;;13.18;80.95;100682.13;107934;1279;61186;-85
2022/06/23 02:40:29;;;;;;;5.60;3.50;;;;;;;13.16;80.94;100682.06;107953;1279;75059;-85
2022/06/23 02:43:10;;;;;;;6.90;4.50;;;;;;;13.13;80.98;100682.09;107976;1279;72604;-85
2022/06/23 02:45:55;;;;;;;6.10;3.90;;;;;;;13.10;81.21;100683.56;107917;1281;72531;-85
2022/06/23 02:48:35;;;;;;;5.70;4.20;;;;;;;13.05;81.55;100681.60;107660;1281;62594;-85
2022/06/23 02:51:18;;;;;;;4.80;3.70;;;;;;;13.03;81.73;100686.02;107970;1279;62119;-86
2022/06/23 02:53:57;;;;;;;6.60;4.00;;;;;;;12.98;81.84;100686.34;107949;1279;73973;-85
2022/06/23 02:56:40;;;;;;;9.70;4.10;;;;;;;12.94;82.20;100688.64;107785;1281;72575;-85
2022/06/23 02:59:50;;;;;;;9.30;4.30;;;;;;;12.90;82.50;100689.33;107964;1279;72839;-86
2022/06/23 03:02:37;;;;;;;5.30;3.90;;;;;;;12.86;82.68;100689.33;107134;1285;62298;-85
2022/06/23 03:05:23;;;;;;;9.20;4.50;;;;;;;12.82;82.85;100692.83;107784;1280;61204;-86
2022/06/23 03:07:57;;;;;;;;;;;;;;;12.79;83.18;100695.86;107941;1279;76272;-86
2022/06/23 03:10:33;;;;;;;10.60;4.00;;;;;;;12.76;83.34;100693.25;107515;1281;71551;-86
2022/06/23 03:13:10;;;;;;;7.20;4.30;;;;;;;12.74;83.47;100689.95;107612;1279;72158;-86
2022/06/23 03:15:49;;;;;;;7.50;4.90;;;;;;;12.72;83.73;100691.89;107903;1279;62201;-85
2022/06/23 03:18:34;;;;;;;7.50;4.90;;;;;;;12.72;83.98;100692.55;107487;1281;60412;-86
2022/06/23 03:21:05;;;;;;;6.70;4.50;;;;;;;12.70;84.06;100687.94;107630;1280;73970;-86
2022/06/23 03:23:55;;;;;;;6.20;4.40;;;;;;;12.70;84.21;100682.82;107617;1281;71473;-86
2022/06/23 03:26:29;;;;;;;6.60;4.40;;;;;;;12.71;84.51;100677.22;107700;1281;73004;-86
2022/06/23 03:29:05;;;;;;;7.40;5.10;;;;;;;12.72;84.70;100673.55;107726;1279;64095;-86
2022/06/23 03:31:45;;;;;;;7.30;4.80;;;;;;;12.74;84.82;100676.32;107879;1279;61648;-86
2022/06/23 03:34:17;;;;;;;8.40;5.80;;;;;;;12.76;84.93;100669.66;107929;1277;75082;-86
2022/06/23 03:36:54;;;;;;;7.80;4.80;;;;;;;12.80;85.12;100669.87;107944;1279;71319;-86
2022/06/23 03:42:37;;;;;;;7.40;4.80;;;;;;;12.87;85.03;100678.60;108011;1281;63779;-86
2022/06/23 03:45:16;;;;;;;8.20;4.70;;;;;;;12.90;84.97;100685.98;107473;1281;61849;-86
2022/06/23 03:48:20;;;;;;;8.70;5.30;;;;;;;12.94;84.70;100690.52;107899;1279;73858;-86
2022/06/23 03:50:54;;;;;;;8.40;4.60;;;;;;;12.97;84.61;100696.81;107924;1279;72830;-86
2022/06/23 03:53:30;;;;;;;6.90;4.50;;;;;;;12.99;84.44;100700.77;107937;1279;72982;-86
2022/06/23 03:56:18;;;;;;;9.30;4.70;;;;;;;13.03;84.45;100703.88;107935;1279;63841;-86
2022/06/23 03:58:54;;;;;;;7.80;4.40;;;;;;;13.08;84.50;100707.27;107834;1280;60510;-86
2022/06/23 04:01:28;;;;;;;7.90;4.60;;;;;;;13.12;84.25;100708.98;107954;1279;74968;-86
2022/06/23 04:04:12;;;;;;;7.50;4.00;;;;;;;13.18;84.32;100715.57;108173;1279;71234;-86
2022/06/23 04:06:44;;;;;;;5.80;4.00;;;;;;;13.25;84.10;100717.18;108518;1279;73000;-86
2022/06/23 04:09:14;;;;;;;6.60;3.90;;;;;;;13.31;83.84;100719.80;108234;1278;62231;-86
2022/06/23 04:11:53;;;;;;;6.30;4.40;;;;;;;13.38;83.65;100724.66;108032;1279;61573;-86
2022/06/23 04:14:53;;;;;;;6.30;4.20;;;;;;;13.44;83.13;100725.28;108049;1278;76072;-86
2022/06/23 04:17:34;;;;;;;7.50;4.00;;;;;;;13.52;82.95;100727.65;107829;1279;69245;-86
2022/06/23 04:20:08;;;;;;;10.50;4.70;;;;;;;13.59;82.88;100730.15;107884;1280;73280;-86
2022/06/23 04:22:40;;;;;;;6.70;4.00;;;;;;;13.66;82.47;100729.13;108000;1279;64129;-86
2022/06/23 04:25:12;;;;;;;6.60;4.20;;;;;;;13.73;82.34;100724.17;107749;1279;61692;-86
2022/06/23 04:30:49;;;;;;;4.90;3.60;;;;;;;13.83;81.93;100721.82;108536;1267;66596;-88
2022/06/23 04:33:30;;;;;;;7.90;3.80;;;;;;;13.90;81.80;100721.87;108557;1279;74164;-88
2022/06/23 04:36:00;;;;;;;7.00;4.20;;;;;;;13.97;81.54;100726.80;108257;1279;62652;-86
2022/06/23 04:38:47;;;;;;;6.40;3.80;;;;;;;14.03;81.57;100729.00;108364;1279;62517;-87
2022/06/23 04:41:24;;;;;;;5.80;3.80;;;;;;;14.12;81.29;100733.59;108080;1279;75263;-86
2022/06/23 04:44:05;;;;;;;8.50;4.30;;;;;;;14.21;81.25;100731.83;108338;1278;70312;-86
2022/06/23 04:46:41;;;;;;;5.90;4.10;;;;;;;14.38;81.25;100734.09;107832;1279;73756;-87
2022/06/23 04:49:53;;;;;;;6.00;4.00;;;;;;;14.54;80.70;100734.17;108124;1279;64797;-87
2022/06/23 04:52:35;;;;;;;4.00;3.10;;;;;;;14.71;79.93;100734.86;108322;1279;61079;-86
2022/06/23 04:55:35;;;;;;;6.40;4.10;;;;;;;14.85;79.42;100739.94;108062;1279;75889;-86
2022/06/23 04:58:21;;;;;;;6.10;2.90;;;;;;;14.98;79.18;100743.42;108249;1279;72354;-87
2022/06/23 05:00:57;;;;;;;5.30;3.50;;;;;;;15.11;78.91;100743.03;107870;1279;72751;-86
2022/06/23 05:03:45;;;;;;;8.90;4.70;;;;;;;15.20;78.77;100741.03;107914;1279;60683;-86
2022/06/23 05:06:29;;;;;;;5.50;3.40;;;;;;;15.31;78.49;100741.34;107972;1280;60342;-87
2022/06/23 05:09:06;;;;;;;9.30;4.90;;;;;;;15.45;78.38;100742.70;108010;1279;76517;-86
2022/06/23 05:11:48;;;;;;;7.10;4.90;;;;;;;15.66;77.96;100740.95;108030;1279;71778;-87
2022/06/23 05:14:38;;;;;;;7.20;4.50;;;;;;;15.91;77.31;100746.22;107884;1281;72426;-85
2022/06/23 05:17:12;;;;;;;8.10;4.60;;;;;;;16.17;76.33;100746.60;107772;1279;62825;-86
2022/06/23 05:19:41;;;;;;;5.90;4.20;;;;;;;16.40;75.44;100749.28;107869;1279;60499;-85
2022/06/23 05:22:17;;;;;;;7.00;4.80;;;;;;;16.61;74.69;100751.05;107846;1279;76016;-83
2022/06/23 05:24:47;;;;;;;6.10;3.90;;;;;;;16.82;73.76;100743.16;108017;1278;72661;-83
2022/06/23 05:27:20;;;;;;;6.90;4.60;;;;;;;16.99;72.83;100741.63;107961;1279;72129;-82
2022/06/23 05:29:56;;;;;;;7.50;4.80;;;;;;;17.14;72.01;100744.91;107986;1278;63440;-82
2022/06/23 05:32:28;;;;;;;7.70;4.40;;;;;;;17.29;71.77;100745.92;107581;1279;61582;-81
2022/06/23 05:35:19;;;;;;;6.60;4.30;;;;;;;17.47;71.30;100741.92;107860;1279;76022;-83
2022/06/23 05:37:55;;;;;;;8.00;4.30;;;;;;;17.64;70.49;100741.54;107961;1279;72371;-83
2022/06/23 05:40:26;;;;;;;8.00;4.40;;;;;;;17.75;69.81;100739.73;107963;1279;72987;-83
2022/06/23 05:42:59;;;;;;;7.20;4.20;;;;;;;17.87;69.66;100735.70;107966;1279;62536;-84
2022/06/23 05:45:29;;;;;;;6.50;3.80;;;;;;;17.98;69.05;100733.15;107572;1279;61284;-82
2022/06/23 05:47:58;;;;;;;6.80;4.30;;;;;;;18.03;68.32;100732.17;107735;1281;73970;-82
2022/06/23 05:50:36;;;;;;;7.30;4.50;;;;;;;18.09;68.27;100731.83;107609;1279;72182;-84
2022/06/23 05:53:20;;;;;;;7.70;4.10;;;;;;;18.20;68.07;100735.73;107981;1279;73821;-82
2022/06/23 05:56:11;;;;;;;7.60;4.30;;;;;;;18.36;67.74;100739.41;107944;1279;62053;-81
2022/06/23 05:58:52;;;;;;;7.10;4.20;;;;;;;18.54;67.34;100738.52;107647;1279;61774;-85
2022/06/23 06:01:29;;;;;;;6.90;3.90;;;;;;;18.65;66.63;100738.00;107801;1279;76400;-86
2022/06/23 06:04:14;;;;;;;25.40;18.00;;;;;;;18.65;65.92;100739.20;107588;1279;72996;-84
2022/06/23 06:06:42;;;;;;;7.10;4.20;;;;;;;18.77;66.20;100746.95;107918;1279;72954;-87
2022/06/23 06:12:01;;;;;;;7.70;4.40;;;;;;;19.08;66.15;100742.71;107970;1278;61777;-81
2022/06/23 06:14:31;;;;;;;5.80;3.80;;;;;;;19.25;65.64;100747.17;107983;1279;75014;-82
2022/06/23 06:17:01;;;;;;;8.80;4.10;;;;;;;19.40;65.28;100747.44;107779;1279;70423;-82
2022/06/23 06:19:31;;;;;;;7.60;4.10;;;;;;;19.60;64.97;100745.80;107704;1279;74632;-82
2022/06/23 06:22:16;;;;;;;28.60;20.30;;;;;;;19.78;64.07;100740.75;107778;1279;63580;-84
2022/06/23 06:24:45;;;;;;;5.70;4.00;;;;;;;19.96;63.32;100738.09;107516;1279;60611;-85
2022/06/23 06:27:13;;;;;;;7.80;3.90;;;;;;;20.05;62.33;100744.14;107601;1279;74955;-86
2022/06/23 06:29:43;;;;;;;6.30;3.90;;;;;;;20.10;61.91;100745.20;107504;1279;72596;-86
2022/06/23 06:32:37;;;;;;;8.50;4.00;;;;;;;20.18;62.10;100740.66;107767;1279;72788;-82
2022/06/23 06:35:16;;;;;;;6.70;3.70;;;;;;;20.31;61.56;100733.42;107966;1278;62552;-83
2022/06/23 06:37:57;;;;;;;8.20;4.20;;;;;;;20.46;61.43;100730.27;107907;1279;60060;-83
2022/06/23 06:40:25;;;;;;;5.30;3.90;;;;;;;20.60;60.90;100731.33;107778;1279;77005;-83
2022/06/23 06:42:57;;;;;;;8.30;4.20;;;;;;;20.70;60.37;100734.69;107965;1279;73096;-83
2022/06/23 06:45:29;;;;;;;8.00;3.30;;;;;;;20.80;60.37;100734.80;107976;1279;73953;-83
2022/06/23 06:47:57;;;;;;;6.20;3.70;;;;;;;20.80;60.33;100737.24;107920;1279;60724;-84
2022/06/23 06:50:45;;;;;;;7.40;3.70;;;;;;;20.74;59.41;100737.09;108060;1279;61401;-83
2022/06/23 06:53:28;;;;;;;7.50;3.10;;;;;;;20.69;60.11;100741.74;107821;1279;76301;-83
2022/06/23 06:56:06;;;;;;;8.00;3.10;;;;;;;20.70;60.03;100736.86;107964;1280;71515;-83
2022/06/23 06:58:43;;;;;;;6.90;3.60;;;;;;;20.72;59.88;100739.90;107978;1279;73973;-83
2022/06/23 07:01:18;;;;;;;5.10;3.10;;;;;;;20.74;59.85;100742.00;108034;1279;60493;-83
2022/06/23 07:03:48;;;;;;;7.00;3.60;;;;;;;20.81;59.74;100745.29;107678;1281;61875;-83
2022/06/23 07:06:37;;;;;;;9.90;5.20;;;;;;;20.86;59.64;100746.89;107717;1281;76108;-84
2022/06/23 07:09:22;;;;;;;5.70;2.90;;;;;;;20.93;59.47;100743.91;107829;1277;71521;-84
2022/06/23 07:12:21;;;;;;;5.10;2.60;;;;;;;21.06;58.44;100743.91;108047;1278;74926;-83
2022/06/23 07:15:03;;;;;;;15.60;8.80;;;;;;;21.18;58.28;100748.59;108026;1278;59966;-84
2022/06/23 07:17:41;;;;;;;8.80;3.20;;;;;;;21.32;57.75;100752.11;107895;1279;61193;-83
2022/06/23 07:20:14;;;;;;;4.50;2.60;;;;;;;21.45;57.00;100754.19;108106;1279;74861;-89
2022/06/23 07:22:50;;;;;;;4.70;2.20;;;;;;;21.45;55.57;100754.12;108028;1273;71551;-87
2022/06/23 07:25:23;;;;;;;10.30;7.20;;;;;;;21.44;55.80;100750.70;107842;1273;72910;-86
2022/06/23 07:27:55;;;;;;;5.00;3.20;;;;;;;21.41;55.72;100746.70;107865;1279;63098;-87
2022/06/23 07:30:33;;;;;;;5.60;2.70;;;;;;;21.50;56.05;100751.34;107804;1281;60800;-87
2022/06/23 07:33:03;;;;;;;5.40;2.70;;;;;;;21.62;56.05;100750.66;107889;1279;74910;-85
2022/06/23 07:35:49;;;;;;;40.60;27.00;;;;;;;21.75;55.61;100747.14;108110;1277;71598;-84
2022/06/23 07:38:25;;;;;;;4.80;2.00;;;;;;;21.91;55.59;100736.23;107540;1280;73457;-84
2022/06/23 07:40:57;;;;;;;4.50;2.60;;;;;;;22.02;54.22;100732.86;107861;1278;61461;-84
2022/06/23 07:44:00;;;;;;;5.20;2.70;;;;;;;22.11;53.81;100729.20;107716;1281;60345;-83
2022/06/23 07:46:27;;;;;;;5.50;2.50;;;;;;;22.26;52.90;100731.96;108043;1279;74908;-83
2022/06/23 07:48:54;;;;;;;5.80;2.00;;;;;;;22.36;53.18;100728.98;108267;1279;71154;-83
2022/06/23 07:51:22;;;;;;;5.90;2.90;;;;;;;22.46;52.67;100728.73;108325;1279;72946;-83
2022/06/23 07:53:51;;;;;;;14.60;9.50;;;;;;;22.55;52.47;100727.38;108276;1279;60838;-83
2022/06/23 07:56:22;;;;;;;12.00;7.50;;;;;;;22.69;52.49;100724.58;108244;1279;61126;-83
2022/06/23 07:58:52;;;;;;;67.50;54.70;;;;;;;22.84;52.17;100722.73;107552;1281;75069;-82
2022/06/23 08:01:47;;;;;;;4.60;1.90;;;;;;;23.01;51.40;100721.51;107883;1279;71783;-82
2022/06/23 08:04:41;;;;;;;5.80;2.10;;;;;;;23.09;50.92;100719.73;107902;1279;74188;-82
2022/06/23 08:07:11;;;;;;;3.80;2.10;;;;;;;23.16;50.82;100721.42;107697;1281;61446;-82
2022/06/23 08:09:48;;;;;;;6.70;2.20;;;;;;;23.22;50.64;100722.70;107938;1279;60623;-82
2022/06/23 08:18:06;;;;;;;3.70;2.30;;;;;;;23.62;49.79;100721.65;108007;1279;74262;-86
2022/06/23 08:20:37;;;;;;;4.10;1.70;;;;;;;23.76;49.76;100723.42;107540;1281;61700;-86
2022/06/23 08:23:06;;;;;;;4.50;1.90;;;;;;;23.91;48.91;100721.52;107946;1279;60945;-85
2022/06/23 08:25:34;;;;;;;3.60;1.80;;;;;;;23.99;47.62;100721.02;107864;1280;75315;-85
2022/06/23 08:28:04;;;;;;;5.00;2.40;;;;;;;24.07;46.61;100720.02;107888;1281;71587;-85
2022/06/23 08:30:36;;;;;;;5.70;1.80;;;;;;;24.11;46.70;100718.73;108282;1279;74627;-85
2022/06/23 08:33:04;;;;;;;4.20;2.10;;;;;;;24.13;46.43;100719.66;108165;1279;60773;-85
2022/06/23 08:35:38;;;;;;;12.30;9.30;;;;;;;24.23;46.92;100715.10;108071;1279;61679;-85
2022/06/23 08:38:06;;;;;;;3.90;1.60;;;;;;;24.38;47.16;100709.13;107812;1281;76499;-86
2022/06/23 08:41:15;;;;;;;6.00;2.30;;;;;;;24.51;46.71;100706.91;107900;1279;72589;-85
2022/06/23 08:43:55;;;;;;;5.00;2.00;;;;;;;24.64;46.28;100707.31;108291;1279;72974;-85
2022/06/23 08:46:27;;;;;;;5.70;2.20;;;;;;;24.75;46.65;100709.39;107649;1281;60591;-85
2022/06/23 08:48:54;;;;;;;3.00;1.60;;;;;;;24.91;46.59;100704.27;107342;1279;422025;-85
2022/06/23 08:51:51;;;;;;;5.20;2.20;;;;;;;25.08;46.24;100703.34;107957;1279;75929;-83
2022/06/23 08:54:33;;;;;;;3.80;1.80;;;;;;;25.23;45.27;100699.34;107865;1279;72618;-83
2022/06/23 08:57:12;;;;;;;4.10;1.60;;;;;;;25.36;44.96;100698.90;107701;1281;72701;-84
2022/06/23 09:00:10;;;;;;;2.80;1.80;;;;;;;25.50;45.03;100698.33;107900;1279;60458;-84
2022/06/23 09:02:57;;;;;;;6.60;2.30;;;;;;;25.68;44.23;100694.76;107930;1279;60608;-85
2022/06/23 09:05:37;;;;;;;3.60;1.80;;;;;;;25.82;44.29;100691.83;107703;1281;75868;-84
2022/06/23 09:08:29;;;;;;;5.80;2.10;;;;;;;25.95;43.21;100692.30;107956;1279;70506;-84
2022/06/23 09:11:44;;;;;;;6.00;1.80;;;;;;;26.08;42.33;100687.95;107904;1279;74152;-84
2022/06/23 09:14:20;;;;;;;2.60;1.20;;;;;;;26.19;42.01;100690.14;107946;1279;61177;-85
2022/06/23 09:17:26;;;;;;;3.00;1.80;;;;;;;26.26;40.98;100687.21;107798;1281;60338;-85
2022/06/23 09:20:24;;;;;;;3.00;1.20;;;;;;;26.31;40.68;100688.11;107985;1279;74934;-85
2022/06/23 09:23:04;;;;;;;5.90;1.80;;;;;;;26.39;41.36;100687.74;107848;1279;71793;-85
2022/06/23 09:26:02;;;;;;;3.20;1.70;;;;;;;26.43;39.98;100688.80;107806;1281;74206;-85
2022/06/23 09:28:51;;;;;;;4.70;1.70;;;;;;;26.52;40.26;100688.64;107811;1279;61645;-85
2022/06/23 09:31:43;;;;;;;11.00;7.80;;;;;;;26.63;40.83;100688.21;108049;1279;60862;-86
2022/06/23 09:34:35;;;;;;;3.40;1.80;;;;;;;26.80;40.31;100683.20;107858;1280;75509;-84
2022/06/23 09:37:41;;;;;;;5.00;1.90;;;;;;;27.00;40.23;100677.98;107920;1279;71439;-84
2022/06/23 09:40:33;;;;;;;3.40;1.70;;;;;;;27.18;39.19;100679.54;107974;1278;72936;-84
2022/06/23 09:43:08;;;;;;;2.40;1.20;;;;;;;27.24;38.68;100680.45;107817;1281;60334;-84
2022/06/23 09:45:56;;;;;;;2.60;1.40;;;;;;;27.38;37.76;100681.80;107781;1281;59577;-84
2022/06/23 09:48:41;;;;;;;3.40;1.40;;;;;;;27.48;37.81;100682.55;107800;1271;179906;-89
2022/06/23 09:51:46;;;;;;;2.50;1.40;;;;;;;27.57;37.56;100678.75;108158;1278;71072;-89
2022/06/23 09:54:37;;;;;;;2.90;1.30;;;;;;;27.70;37.11;100678.60;108117;1278;72223;-89
2022/06/23 09:57:11;;;;;;;4.10;1.50;;;;;;;27.78;35.94;100676.77;108080;1279;60233;-89
2022/06/23 10:00:01;;;;;;;3.70;1.40;;;;;;;27.89;35.42;100674.15;108149;1278;60587;-88
2022/06/23 10:02:39;;;;;;;3.20;1.30;;;;;;;28.03;35.44;100669.88;107889;1279;75008;-89
2022/06/23 10:05:20;;;;;;;4.90;1.50;;;;;;;28.09;36.16;100670.31;108118;1277;71370;-88
2022/06/23 10:08:06;;;;;;;4.70;1.90;;;;;;;28.14;35.24;100663.68;108097;1278;72463;-89
2022/06/23 10:10:44;;;;;;;3.80;1.40;;;;;;;28.18;35.35;100664.23;108074;1278;59630;-89
2022/06/23 10:13:26;;;;;;;4.60;1.20;;;;;;;28.34;35.34;100662.05;108153;1279;60444;-89
2022/06/23 10:16:18;;;;;;;2.90;1.10;;;;;;;28.43;32.52;100660.76;108023;1279;76719;-88
2022/06/23 10:19:15;;;;;;;4.00;0.80;;;;;;;28.46;32.97;100656.73;108111;1278;71314;-89
2022/06/23 10:21:54;;;;;;;2.70;1.10;;;;;;;28.51;32.30;100656.32;108115;1278;75191;-89
2022/06/23 10:24:29;;;;;;;3.00;1.10;;;;;;;28.59;33.81;100654.45;108172;1277;60670;-89
2022/06/23 10:27:20;;;;;;;3.60;1.10;;;;;;;28.69;31.78;100654.52;108120;1278;61747;-88
2022/06/23 10:30:18;;;;;;;3.60;1.20;;;;;;;28.78;31.90;100658.39;108116;1277;74998;-88
2022/06/23 10:33:22;;;;;;;2.10;1.00;;;;;;;28.95;31.46;100656.05;108086;1277;71407;-88
2022/06/23 10:36:05;;;;;;;2.20;1.00;;;;;;;29.05;30.68;100654.44;108043;1278;73396;-89
2022/06/23 10:38:48;;;;;;;2.90;1.00;;;;;;;29.08;28.92;100655.27;108110;1278;59417;-89
2022/06/23 10:41:29;;;;;;;2.70;1.00;;;;;;;29.14;29.14;100653.06;108095;1278;60343;-89
2022/06/23 10:44:03;;;;;;;3.10;1.20;;;;;;;29.23;29.36;100644.42;108139;1277;76727;-88
2022/06/23 10:47:01;;;;;;;4.30;1.60;;;;;;;29.24;30.90;100644.02;108110;1278;72450;-88
2022/06/23 10:49:49;;;;;;;2.10;1.10;;;;;;;29.20;31.39;100638.08;108040;1279;71616;-89
2022/06/23 10:52:41;;;;;;;4.50;1.30;;;;;;;29.29;31.46;100632.46;108018;1279;61226;-88
2022/06/23 10:55:17;;;;;;;2.00;1.10;;;;;;;29.43;31.94;100630.27;107791;1279;61691;-88
2022/06/23 10:58:00;;;;;;;3.10;1.10;;;;;;;29.54;30.18;100626.45;108052;1278;76048;-88
2022/06/23 11:00:46;;;;;;;2.90;1.10;;;;;;;29.57;30.11;100624.02;108069;1279;71363;-89
2022/06/23 11:03:39;;;;;;;2.60;1.10;;;;;;;29.65;30.72;100623.33;107905;1279;72967;-88
2022/06/23 11:06:12;;;;;;;3.00;0.90;;;;;;;29.70;29.83;100622.00;108100;1278;61439;-90
2022/06/23 11:08:51;;;;;;;4.60;1.40;;;;;;;29.68;29.10;100625.14;108038;1279;60562;-89
2022/06/23 11:11:17;;;;;;;2.90;1.30;;;;;;;29.70;29.80;100624.34;108047;1279;75448;-88
2022/06/23 11:14:14;;;;;;;2.00;1.00;;;;;;;29.80;29.80;100621.57;108051;1279;72969;-88
2022/06/23 11:16:59;;;;;;;2.80;1.30;;;;;;;29.88;29.16;100622.99;107840;1279;72988;-88
2022/06/23 11:19:52;;;;;;;1.70;1.20;;;;;;;29.92;29.54;100620.31;107967;1279;60411;-89
2022/06/23 11:22:43;;;;;;;3.80;1.90;;;;;;;29.96;29.07;100619.57;108064;1278;60441;-89
2022/06/23 11:25:15;;;;;;;2.80;1.30;;;;;;;30.01;28.89;100614.11;108067;1279;74972;-89
2022/06/23 11:27:53;;;;;;;2.90;1.20;;;;;;;30.08;29.10;100611.11;108028;1279;71639;-89
2022/06/23 11:30:46;;;;;;;4.90;1.60;;;;;;;30.19;29.08;100610.70;108068;1279;74074;-89
2022/06/23 11:33:42;;;;;;;3.80;1.70;;;;;;;30.30;28.45;100603.50;107746;1279;60705;-89
2022/06/23 11:36:22;;;;;;;4.00;1.50;;;;;;;30.20;27.72;100603.88;107974;1280;60601;-87
2022/06/23 11:38:58;;;;;;;6.30;1.80;;;;;;;30.07;28.82;100595.09;107897;1279;78109;-87
2022/06/23 11:41:42;;;;;;;2.90;1.50;;;;;;;30.08;29.57;100584.02;108119;1279;70228;-88
2022/06/23 11:44:23;;;;;;;4.10;1.30;;;;;;;30.20;30.43;100577.67;107863;1280;73656;-88
2022/06/23 11:47:07;;;;;;;4.70;1.40;;;;;;;30.34;30.63;100577.35;108105;1278;60189;-88
2022/06/23 11:49:53;;;;;;;3.30;1.40;;;;;;;30.54;29.87;100580.70;107921;1280;61030;-89
2022/06/23 11:52:45;;;;;;;2.50;1.20;;;;;;;30.72;28.53;100579.11;107890;1279;74117;-87
2022/06/23 11:55:17;;;;;;;5.20;1.40;;;;;;;30.83;28.90;100572.24;107966;1280;73078;-88
2022/06/23 11:58:13;;;;;;;3.00;1.60;;;;;;;30.98;29.35;100571.60;107854;1279;73350;-88
2022/06/23 12:00:54;;;;;;;3.00;1.30;;;;;;;31.12;29.51;100567.66;108052;1279;60015;-88
2022/06/23 12:03:39;;;;;;;3.10;1.20;;;;;;;31.24;28.64;100567.64;108087;1279;60031;-88
2022/06/23 12:06:18;;;;;;;2.20;1.30;;;;;;;31.42;28.71;100564.41;107982;1279;74976;-87
2022/06/23 12:09:03;;;;;;;2.40;1.30;;;;;;;31.51;28.39;100564.48;108008;1279;71157;-88
2022/06/23 12:11:33;;;;;;;2.70;1.40;;;;;;;31.82;27.48;100560.85;108051;1279;74309;-88
2022/06/23 12:14:03;;;;;;;2.10;1.00;;;;;;;32.20;26.73;100558.43;107833;1279;62086;-88
2022/06/23 12:16:31;;;;;;;2.30;1.10;;;;;;;32.49;25.59;100560.30;107946;1280;61515;-89
2022/06/23 12:19:05;;;;;;;3.60;1.40;;;;;;;32.77;25.45;100563.70;107821;1280;74698;-88
2022/06/23 12:22:00;;;;;;;2.40;1.30;;;;;;;33.09;25.36;100553.98;108090;1279;72663;-88
2022/06/23 12:24:39;;;;;;;2.40;0.90;;;;;;;33.56;24.59;100552.87;108094;1279;74021;-88
2022/06/23 12:27:28;;;;;;;2.60;1.20;;;;;;;33.98;24.06;100542.59;107944;1278;61800;-88
2022/06/23 12:30:09;;;;;;;1.60;1.20;;;;;;;34.36;24.57;100541.21;108074;1279;59552;-89
2022/06/23 12:32:59;;;;;;;2.40;1.10;;;;;;;34.55;23.91;100540.00;108016;1279;75849;-88